sensor_id;sensor_type;location;lat;lon;timestamp;temperature;humidity
71668;DHT22;59504;54.806;9.640;2023-07-30T00:04:04;15.50;69.80
71668;DHT22;59504;54.806;9.640;2023-07-30T00:06:04;15.40;69.80
71668;DHT22;59504;54.806;9.640;2023-07-30T00:08:05;15.40;70.00
71668;DHT22;59504;54.806;9.640;2023-07-30T00:10:07;15.40;69.60
71668;DHT22;59504;54.806;9.640;2023-07-30T00:12:27;15.40;69.80
71668;DHT22;59504;54.806;9.640;2023-07-30T00:14:48;15.40;69.70
71668;DHT22;59504;54.806;9.640;2023-07-30T00:17:08;15.30;69.60
71668;DHT22;59504;54.806;9.640;2023-07-30T00:19:29;15.30;69.90
71668;DHT22;59504;54.806;9.640;2023-07-30T00:21:49;15.30;69.90
71668;DHT22;59504;54.806;9.640;2023-07-30T00:24:10;15.30;69.60
71668;DHT22;59504;54.806;9.640;2023-07-30T00:26:30;15.30;70.00
71668;DHT22;59504;54.806;9.640;2023-07-30T00:28:51;15.30;70.00
71668;DHT22;59504;54.806;9.640;2023-07-30T00:31:11;15.20;69.80
71668;DHT22;59504;54.806;9.640;2023-07-30T00:33:32;15.20;69.80
71668;DHT22;59504;54.806;9.640;2023-07-30T00:35:52;15.20;69.80
71668;DHT22;59504;54.806;9.640;2023-07-30T00:38:13;15.20;69.80
71668;DHT22;59504;54.806;9.640;2023-07-30T00:40:39;15.20;69.80
71668;DHT22;59504;54.806;9.640;2023-07-30T00:43:00;15.20;70.00
71668;DHT22;59504;54.806;9.640;2023-07-30T00:45:21;15.20;70.80
71668;DHT22;59504;54.806;9.640;2023-07-30T00:47:21;15.20;70.50
71668;DHT22;59504;54.806;9.640;2023-07-30T00:49:22;15.10;70.50
71668;DHT22;59504;54.806;9.640;2023-07-30T00:51:23;15.10;70.40
71668;DHT22;59504;54.806;9.640;2023-07-30T00:53:24;15.10;70.30
71668;DHT22;59504;54.806;9.640;2023-07-30T00:55:26;15.10;70.10
71668;DHT22;59504;54.806;9.640;2023-07-30T00:57:27;15.00;70.30
71668;DHT22;59504;54.806;9.640;2023-07-30T00:59:28;15.00;70.50
71668;DHT22;59504;54.806;9.640;2023-07-30T01:01:30;15.00;70.40
71668;DHT22;59504;54.806;9.640;2023-07-30T01:03:33;15.10;70.60
71668;DHT22;59504;54.806;9.640;2023-07-30T01:05:34;15.00;70.80
71668;DHT22;59504;54.806;9.640;2023-07-30T01:07:35;15.00;71.10
71668;DHT22;59504;54.806;9.640;2023-07-30T01:09:35;15.00;71.10
71668;DHT22;59504;54.806;9.640;2023-07-30T01:11:36;15.00;70.90
71668;DHT22;59504;54.806;9.640;2023-07-30T01:13:37;15.00;70.70
71668;DHT22;59504;54.806;9.640;2023-07-30T01:15:38;14.90;70.80
71668;DHT22;59504;54.806;9.640;2023-07-30T01:17:40;14.90;71.00
71668;DHT22;59504;54.806;9.640;2023-07-30T01:19:40;14.90;70.90
71668;DHT22;59504;54.806;9.640;2023-07-30T01:21:41;14.90;71.30
71668;DHT22;59504;54.806;9.640;2023-07-30T01:23:41;14.90;71.10
71668;DHT22;59504;54.806;9.640;2023-07-30T01:25:42;14.90;71.00
71668;DHT22;59504;54.806;9.640;2023-07-30T01:27:47;14.90;71.60
71668;DHT22;59504;54.806;9.640;2023-07-30T01:29:51;14.90;72.10
71668;DHT22;59504;54.806;9.640;2023-07-30T01:31:54;14.90;72.00
71668;DHT22;59504;54.806;9.640;2023-07-30T01:33:56;14.90;72.40
71668;DHT22;59504;54.806;9.640;2023-07-30T01:35:57;14.90;72.20
71668;DHT22;59504;54.806;9.640;2023-07-30T01:38:00;14.90;72.30
71668;DHT22;59504;54.806;9.640;2023-07-30T01:40:02;14.90;72.20
71668;DHT22;59504;54.806;9.640;2023-07-30T01:42:04;14.80;71.90
71668;DHT22;59504;54.806;9.640;2023-07-30T01:44:04;14.80;71.80
71668;DHT22;59504;54.806;9.640;2023-07-30T01:46:05;14.80;71.80
71668;DHT22;59504;54.806;9.640;2023-07-30T01:48:05;14.90;71.90
71668;DHT22;59504;54.806;9.640;2023-07-30T01:50:06;14.80;71.70
71668;DHT22;59504;54.806;9.640;2023-07-30T01:52:07;14.70;71.70
71668;DHT22;59504;54.806;9.640;2023-07-30T01:54:07;14.80;71.70
71668;DHT22;59504;54.806;9.640;2023-07-30T01:56:08;14.80;71.90
71668;DHT22;59504;54.806;9.640;2023-07-30T01:58:09;14.80;72.50
71668;DHT22;59504;54.806;9.640;2023-07-30T02:00:10;14.80;72.20
71668;DHT22;59504;54.806;9.640;2023-07-30T02:02:10;14.70;72.40
71668;DHT22;59504;54.806;9.640;2023-07-30T02:04:11;14.70;72.60
71668;DHT22;59504;54.806;9.640;2023-07-30T02:06:12;14.70;72.70
71668;DHT22;59504;54.806;9.640;2023-07-30T02:08:12;14.70;72.70
71668;DHT22;59504;54.806;9.640;2023-07-30T02:10:16;14.70;72.70
71668;DHT22;59504;54.806;9.640;2023-07-30T02:12:16;14.70;72.60
71668;DHT22;59504;54.806;9.640;2023-07-30T02:14:17;14.60;72.30
71668;DHT22;59504;54.806;9.640;2023-07-30T02:16:18;14.60;72.50
71668;DHT22;59504;54.806;9.640;2023-07-30T02:18:19;14.60;72.30
71668;DHT22;59504;54.806;9.640;2023-07-30T02:20:19;14.60;71.90
71668;DHT22;59504;54.806;9.640;2023-07-30T02:22:20;14.60;71.90
71668;DHT22;59504;54.806;9.640;2023-07-30T02:24:20;14.60;71.90
71668;DHT22;59504;54.806;9.640;2023-07-30T02:26:21;14.60;71.90
71668;DHT22;59504;54.806;9.640;2023-07-30T02:28:22;14.60;71.90
71668;DHT22;59504;54.806;9.640;2023-07-30T02:30:22;14.60;72.00
71668;DHT22;59504;54.806;9.640;2023-07-30T02:32:23;14.60;72.30
71668;DHT22;59504;54.806;9.640;2023-07-30T02:34:23;14.60;72.30
71668;DHT22;59504;54.806;9.640;2023-07-30T02:36:24;14.60;73.20
71668;DHT22;59504;54.806;9.640;2023-07-30T02:38:24;14.60;72.80
71668;DHT22;59504;54.806;9.640;2023-07-30T02:40:25;14.60;72.50
71668;DHT22;59504;54.806;9.640;2023-07-30T02:42:26;14.50;72.40
71668;DHT22;59504;54.806;9.640;2023-07-30T02:44:26;14.50;72.60
71668;DHT22;59504;54.806;9.640;2023-07-30T02:46:27;14.50;72.60
71668;DHT22;59504;54.806;9.640;2023-07-30T02:48:28;14.50;72.50
71668;DHT22;59504;54.806;9.640;2023-07-30T02:50:28;14.60;72.50
71668;DHT22;59504;54.806;9.640;2023-07-30T02:52:29;14.50;72.50
71668;DHT22;59504;54.806;9.640;2023-07-30T02:54:29;14.50;72.50
71668;DHT22;59504;54.806;9.640;2023-07-30T02:56:30;14.50;72.50
71668;DHT22;59504;54.806;9.640;2023-07-30T02:58:30;14.60;72.60
71668;DHT22;59504;54.806;9.640;2023-07-30T03:00:31;14.50;73.10
71668;DHT22;59504;54.806;9.640;2023-07-30T03:02:32;14.40;73.50
71668;DHT22;59504;54.806;9.640;2023-07-30T03:04:32;14.50;73.50
71668;DHT22;59504;54.806;9.640;2023-07-30T03:06:33;14.40;73.50
71668;DHT22;59504;54.806;9.640;2023-07-30T03:08:34;14.40;73.50
71668;DHT22;59504;54.806;9.640;2023-07-30T03:10:36;14.40;73.30
71668;DHT22;59504;54.806;9.640;2023-07-30T03:12:37;14.40;73.50
71668;DHT22;59504;54.806;9.640;2023-07-30T03:14:38;14.50;73.90
71668;DHT22;59504;54.806;9.640;2023-07-30T03:16:38;14.40;74.40
71668;DHT22;59504;54.806;9.640;2023-07-30T03:18:39;14.40;73.40
71668;DHT22;59504;54.806;9.640;2023-07-30T03:20:39;14.40;73.20
71668;DHT22;59504;54.806;9.640;2023-07-30T03:22:40;14.40;73.60
71668;DHT22;59504;54.806;9.640;2023-07-30T03:24:40;14.40;74.00
71668;DHT22;59504;54.806;9.640;2023-07-30T03:26:41;14.30;73.90
71668;DHT22;59504;54.806;9.640;2023-07-30T03:28:45;14.40;73.80
71668;DHT22;59504;54.806;9.640;2023-07-30T03:31:05;14.30;74.00
71668;DHT22;59504;54.806;9.640;2023-07-30T03:33:12;14.30;74.10
71668;DHT22;59504;54.806;9.640;2023-07-30T03:35:32;14.40;73.90
71668;DHT22;59504;54.806;9.640;2023-07-30T03:37:53;14.40;74.00
71668;DHT22;59504;54.806;9.640;2023-07-30T03:40:13;14.40;73.90
71668;DHT22;59504;54.806;9.640;2023-07-30T03:42:34;14.40;73.80
71668;DHT22;59504;54.806;9.640;2023-07-30T03:44:35;14.40;73.70
71668;DHT22;59504;54.806;9.640;2023-07-30T03:46:55;14.40;73.60
71668;DHT22;59504;54.806;9.640;2023-07-30T03:49:16;14.50;73.60
71668;DHT22;59504;54.806;9.640;2023-07-30T03:51:36;14.40;73.90
71668;DHT22;59504;54.806;9.640;2023-07-30T03:53:59;14.40;74.30
71668;DHT22;59504;54.806;9.640;2023-07-30T03:56:19;14.40;74.80
71668;DHT22;59504;54.806;9.640;2023-07-30T03:58:40;14.40;74.80
71668;DHT22;59504;54.806;9.640;2023-07-30T04:01:00;14.50;74.40
71668;DHT22;59504;54.806;9.640;2023-07-30T04:03:21;14.40;74.00
71668;DHT22;59504;54.806;9.640;2023-07-30T04:05:41;14.40;74.00
71668;DHT22;59504;54.806;9.640;2023-07-30T04:08:02;14.40;74.70
71668;DHT22;59504;54.806;9.640;2023-07-30T04:10:03;14.50;74.50
71668;DHT22;59504;54.806;9.640;2023-07-30T04:12:04;14.50;74.40
71668;DHT22;59504;54.806;9.640;2023-07-30T04:14:04;14.50;74.40
71668;DHT22;59504;54.806;9.640;2023-07-30T04:16:08;14.50;74.00
71668;DHT22;59504;54.806;9.640;2023-07-30T04:18:08;14.60;73.70
71668;DHT22;59504;54.806;9.640;2023-07-30T04:20:09;14.60;74.10
71668;DHT22;59504;54.806;9.640;2023-07-30T04:22:10;14.60;74.30
71668;DHT22;59504;54.806;9.640;2023-07-30T04:24:10;14.70;75.50
71668;DHT22;59504;54.806;9.640;2023-07-30T04:26:11;14.70;75.80
71668;DHT22;59504;54.806;9.640;2023-07-30T04:28:12;14.70;76.50
71668;DHT22;59504;54.806;9.640;2023-07-30T04:30:13;14.70;76.00
71668;DHT22;59504;54.806;9.640;2023-07-30T04:32:13;14.80;76.90
71668;DHT22;59504;54.806;9.640;2023-07-30T04:34:15;14.90;76.80
71668;DHT22;59504;54.806;9.640;2023-07-30T04:36:15;14.90;76.90
71668;DHT22;59504;54.806;9.640;2023-07-30T04:38:16;14.90;77.60
71668;DHT22;59504;54.806;9.640;2023-07-30T04:40:16;15.00;77.30
71668;DHT22;59504;54.806;9.640;2023-07-30T04:42:17;15.00;76.80
71668;DHT22;59504;54.806;9.640;2023-07-30T04:44:18;15.10;76.70
71668;DHT22;59504;54.806;9.640;2023-07-30T04:46:18;15.10;76.50
71668;DHT22;59504;54.806;9.640;2023-07-30T04:48:19;15.20;76.40
71668;DHT22;59504;54.806;9.640;2023-07-30T04:50:19;15.10;76.40
71668;DHT22;59504;54.806;9.640;2023-07-30T04:52:20;15.20;76.70
71668;DHT22;59504;54.806;9.640;2023-07-30T04:54:21;15.30;78.10
71668;DHT22;59504;54.806;9.640;2023-07-30T04:56:21;15.30;77.50
71668;DHT22;59504;54.806;9.640;2023-07-30T04:58:22;15.30;77.50
71668;DHT22;59504;54.806;9.640;2023-07-30T05:00:24;15.40;77.30
71668;DHT22;59504;54.806;9.640;2023-07-30T05:02:25;15.40;78.00
71668;DHT22;59504;54.806;9.640;2023-07-30T05:04:25;15.40;77.80
71668;DHT22;59504;54.806;9.640;2023-07-30T05:06:26;15.50;77.90
71668;DHT22;59504;54.806;9.640;2023-07-30T05:08:26;15.50;77.60
71668;DHT22;59504;54.806;9.640;2023-07-30T05:10:27;15.60;78.20
71668;DHT22;59504;54.806;9.640;2023-07-30T05:12:28;15.70;77.80
71668;DHT22;59504;54.806;9.640;2023-07-30T05:14:28;15.70;77.90
71668;DHT22;59504;54.806;9.640;2023-07-30T05:16:29;15.70;78.90
71668;DHT22;59504;54.806;9.640;2023-07-30T05:18:30;15.80;79.50
71668;DHT22;59504;54.806;9.640;2023-07-30T05:20:31;15.80;79.50
71668;DHT22;59504;54.806;9.640;2023-07-30T05:22:31;15.90;79.70
71668;DHT22;59504;54.806;9.640;2023-07-30T05:24:32;16.00;79.60
71668;DHT22;59504;54.806;9.640;2023-07-30T05:26:33;16.10;79.20
71668;DHT22;59504;54.806;9.640;2023-07-30T05:28:33;16.20;80.00
71668;DHT22;59504;54.806;9.640;2023-07-30T05:30:34;16.20;79.60
71668;DHT22;59504;54.806;9.640;2023-07-30T05:32:34;16.30;79.50
71668;DHT22;59504;54.806;9.640;2023-07-30T05:34:36;16.40;79.70
71668;DHT22;59504;54.806;9.640;2023-07-30T05:36:36;16.40;79.50
71668;DHT22;59504;54.806;9.640;2023-07-30T05:38:57;16.50;79.80
71668;DHT22;59504;54.806;9.640;2023-07-30T05:41:18;16.60;79.50
71668;DHT22;59504;54.806;9.640;2023-07-30T05:43:28;16.60;79.30
71668;DHT22;59504;54.806;9.640;2023-07-30T05:45:48;16.60;79.20
71668;DHT22;59504;54.806;9.640;2023-07-30T05:48:09;16.80;80.30
71668;DHT22;59504;54.806;9.640;2023-07-30T05:50:30;16.80;78.90
71668;DHT22;59504;54.806;9.640;2023-07-30T05:52:51;16.90;78.70
71668;DHT22;59504;54.806;9.640;2023-07-30T05:55:11;17.00;79.00
71668;DHT22;59504;54.806;9.640;2023-07-30T05:57:32;17.00;78.10
71668;DHT22;59504;54.806;9.640;2023-07-30T05:59:49;17.10;78.10
71668;DHT22;59504;54.806;9.640;2023-07-30T06:02:10;17.20;79.50
71668;DHT22;59504;54.806;9.640;2023-07-30T06:04:30;17.20;79.50
71668;DHT22;59504;54.806;9.640;2023-07-30T06:06:41;17.30;78.70
71668;DHT22;59504;54.806;9.640;2023-07-30T06:09:02;17.40;78.70
71668;DHT22;59504;54.806;9.640;2023-07-30T06:11:23;17.50;79.00
71668;DHT22;59504;54.806;9.640;2023-07-30T06:13:43;17.50;79.60
71668;DHT22;59504;54.806;9.640;2023-07-30T06:15:49;17.60;79.50
71668;DHT22;59504;54.806;9.640;2023-07-30T06:18:09;17.70;79.10
71668;DHT22;59504;54.806;9.640;2023-07-30T06:20:30;17.80;79.10
71668;DHT22;59504;54.806;9.640;2023-07-30T06:22:51;17.80;79.50
71668;DHT22;59504;54.806;9.640;2023-07-30T06:25:11;17.90;79.50
71668;DHT22;59504;54.806;9.640;2023-07-30T06:27:32;18.00;79.20
71668;DHT22;59504;54.806;9.640;2023-07-30T06:29:52;18.10;79.70
71668;DHT22;59504;54.806;9.640;2023-07-30T06:31:53;18.10;79.00
71668;DHT22;59504;54.806;9.640;2023-07-30T06:33:55;18.20;78.60
71668;DHT22;59504;54.806;9.640;2023-07-30T06:35:55;18.30;78.90
71668;DHT22;59504;54.806;9.640;2023-07-30T06:37:56;18.30;79.60
71668;DHT22;59504;54.806;9.640;2023-07-30T06:39:56;18.40;78.90
71668;DHT22;59504;54.806;9.640;2023-07-30T06:41:57;18.50;78.60
71668;DHT22;59504;54.806;9.640;2023-07-30T06:43:58;18.50;78.20
71668;DHT22;59504;54.806;9.640;2023-07-30T06:45:58;18.60;77.60
71668;DHT22;59504;54.806;9.640;2023-07-30T06:47:59;18.60;78.00
71668;DHT22;59504;54.806;9.640;2023-07-30T06:49:59;18.70;77.60
71668;DHT22;59504;54.806;9.640;2023-07-30T06:52:00;18.70;77.90
71668;DHT22;59504;54.806;9.640;2023-07-30T06:54:01;18.80;77.80
71668;DHT22;59504;54.806;9.640;2023-07-30T06:56:01;18.80;77.40
71668;DHT22;59504;54.806;9.640;2023-07-30T06:58:02;18.80;78.00
71668;DHT22;59504;54.806;9.640;2023-07-30T07:00:03;19.00;77.80
71668;DHT22;59504;54.806;9.640;2023-07-30T07:02:04;19.00;77.50
71668;DHT22;59504;54.806;9.640;2023-07-30T07:04:06;19.10;77.70
71668;DHT22;59504;54.806;9.640;2023-07-30T07:06:12;19.10;76.90
71668;DHT22;59504;54.806;9.640;2023-07-30T07:08:12;19.20;76.50
71668;DHT22;59504;54.806;9.640;2023-07-30T07:10:13;19.30;75.90
71668;DHT22;59504;54.806;9.640;2023-07-30T07:12:13;19.40;75.20
71668;DHT22;59504;54.806;9.640;2023-07-30T07:14:14;19.30;73.90
71668;DHT22;59504;54.806;9.640;2023-07-30T07:16:35;19.40;73.70
71668;DHT22;59504;54.806;9.640;2023-07-30T07:18:55;19.40;74.00
71668;DHT22;59504;54.806;9.640;2023-07-30T07:21:16;19.50;74.50
71668;DHT22;59504;54.806;9.640;2023-07-30T07:23:36;19.60;74.50
71668;DHT22;59504;54.806;9.640;2023-07-30T07:25:57;19.60;74.50
71668;DHT22;59504;54.806;9.640;2023-07-30T07:28:17;19.70;74.10
71668;DHT22;59504;54.806;9.640;2023-07-30T07:30:39;19.80;73.90
71668;DHT22;59504;54.806;9.640;2023-07-30T07:32:59;19.80;73.40
71668;DHT22;59504;54.806;9.640;2023-07-30T07:35:20;19.90;72.20
71668;DHT22;59504;54.806;9.640;2023-07-30T07:37:40;19.90;70.50
71668;DHT22;59504;54.806;9.640;2023-07-30T07:40:01;19.90;68.70
71668;DHT22;59504;54.806;9.640;2023-07-30T07:42:23;19.90;69.10
71668;DHT22;59504;54.806;9.640;2023-07-30T07:44:24;19.90;69.20
71668;DHT22;59504;54.806;9.640;2023-07-30T07:46:24;20.00;69.10
71668;DHT22;59504;54.806;9.640;2023-07-30T07:48:27;20.00;68.90
71668;DHT22;59504;54.806;9.640;2023-07-30T07:50:28;20.10;69.60
71668;DHT22;59504;54.806;9.640;2023-07-30T07:52:29;20.10;69.80
71668;DHT22;59504;54.806;9.640;2023-07-30T07:54:29;20.20;70.30
71668;DHT22;59504;54.806;9.640;2023-07-30T07:56:30;20.30;70.00
71668;DHT22;59504;54.806;9.640;2023-07-30T07:58:31;20.30;69.10
71668;DHT22;59504;54.806;9.640;2023-07-30T08:00:33;20.40;68.70
71668;DHT22;59504;54.806;9.640;2023-07-30T08:02:34;20.50;69.10
71668;DHT22;59504;54.806;9.640;2023-07-30T08:04:34;20.50;67.50
71668;DHT22;59504;54.806;9.640;2023-07-30T08:06:41;20.60;68.50
71668;DHT22;59504;54.806;9.640;2023-07-30T08:09:08;20.70;68.50
71668;DHT22;59504;54.806;9.640;2023-07-30T08:11:28;20.80;66.60
71668;DHT22;59504;54.806;9.640;2023-07-30T08:13:49;20.90;66.50
71668;DHT22;59504;54.806;9.640;2023-07-30T08:16:09;21.00;64.80
71668;DHT22;59504;54.806;9.640;2023-07-30T08:21:13;21.10;63.80
71668;DHT22;59504;54.806;9.640;2023-07-30T08:23:33;21.10;63.80
71668;DHT22;59504;54.806;9.640;2023-07-30T08:25:54;21.20;64.20
71668;DHT22;59504;54.806;9.640;2023-07-30T08:28:15;21.10;64.20
71668;DHT22;59504;54.806;9.640;2023-07-30T08:30:36;21.30;65.20
71668;DHT22;59504;54.806;9.640;2023-07-30T08:32:56;21.30;64.90
71668;DHT22;59504;54.806;9.640;2023-07-30T08:34:57;21.30;64.50
71668;DHT22;59504;54.806;9.640;2023-07-30T08:37:00;21.40;65.20
71668;DHT22;59504;54.806;9.640;2023-07-30T08:39:01;21.40;62.90
71668;DHT22;59504;54.806;9.640;2023-07-30T08:41:02;21.50;61.20
71668;DHT22;59504;54.806;9.640;2023-07-30T08:43:03;21.50;60.80
71668;DHT22;59504;54.806;9.640;2023-07-30T08:45:05;21.60;62.10
71668;DHT22;59504;54.806;9.640;2023-07-30T08:47:06;21.50;58.50
71668;DHT22;59504;54.806;9.640;2023-07-30T08:49:07;21.60;59.70
71668;DHT22;59504;54.806;9.640;2023-07-30T08:51:07;21.60;58.40
71668;DHT22;59504;54.806;9.640;2023-07-30T08:53:10;21.70;59.50
71668;DHT22;59504;54.806;9.640;2023-07-30T08:55:11;21.70;60.20
71668;DHT22;59504;54.806;9.640;2023-07-30T08:57:32;21.80;60.70
71668;DHT22;59504;54.806;9.640;2023-07-30T08:59:54;22.00;59.90
71668;DHT22;59504;54.806;9.640;2023-07-30T09:02:22;22.00;61.20
71668;DHT22;59504;54.806;9.640;2023-07-30T09:04:45;22.10;59.50
71668;DHT22;59504;54.806;9.640;2023-07-30T09:07:08;22.20;60.40
71668;DHT22;59504;54.806;9.640;2023-07-30T09:09:30;22.30;59.80
71668;DHT22;59504;54.806;9.640;2023-07-30T09:11:34;22.40;59.60
71668;DHT22;59504;54.806;9.640;2023-07-30T09:13:36;22.50;59.20
71668;DHT22;59504;54.806;9.640;2023-07-30T09:15:37;22.50;58.70
71668;DHT22;59504;54.806;9.640;2023-07-30T09:17:38;22.60;58.60
71668;DHT22;59504;54.806;9.640;2023-07-30T09:19:39;22.70;57.00
71668;DHT22;59504;54.806;9.640;2023-07-30T09:21:41;22.80;58.20
71668;DHT22;59504;54.806;9.640;2023-07-30T09:24:04;22.80;57.00
71668;DHT22;59504;54.806;9.640;2023-07-30T09:26:42;22.90;58.90
71668;DHT22;59504;54.806;9.640;2023-07-30T09:29:07;23.00;55.70
71668;DHT22;59504;54.806;9.640;2023-07-30T09:31:27;23.10;56.80
71668;DHT22;59504;54.806;9.640;2023-07-30T09:33:51;23.10;56.20
71668;DHT22;59504;54.806;9.640;2023-07-30T09:36:11;23.20;54.90
71668;DHT22;59504;54.806;9.640;2023-07-30T09:38:14;23.20;55.20
71668;DHT22;59504;54.806;9.640;2023-07-30T09:40:40;23.30;56.50
71668;DHT22;59504;54.806;9.640;2023-07-30T09:43:05;23.30;56.00
71668;DHT22;59504;54.806;9.640;2023-07-30T09:50:36;23.30;54.00
71668;DHT22;59504;54.806;9.640;2023-07-30T09:53:01;23.40;54.00
71668;DHT22;59504;54.806;9.640;2023-07-30T09:55:02;23.50;55.70
71668;DHT22;59504;54.806;9.640;2023-07-30T09:57:23;23.50;54.20
71668;DHT22;59504;54.806;9.640;2023-07-30T09:59:24;23.40;54.30
71668;DHT22;59504;54.806;9.640;2023-07-30T10:01:48;23.50;54.20
71668;DHT22;59504;54.806;9.640;2023-07-30T10:04:13;23.40;55.10
71668;DHT22;59504;54.806;9.640;2023-07-30T10:06:39;23.40;53.60
71668;DHT22;59504;54.806;9.640;2023-07-30T10:09:01;23.40;52.60
71668;DHT22;59504;54.806;9.640;2023-07-30T10:11:25;23.30;53.60
71668;DHT22;59504;54.806;9.640;2023-07-30T10:13:47;23.30;53.80
71668;DHT22;59504;54.806;9.640;2023-07-30T10:19:08;23.20;54.00
71668;DHT22;59504;54.806;9.640;2023-07-30T10:21:31;23.10;53.30
71668;DHT22;59504;54.806;9.640;2023-07-30T10:23:34;23.10;52.30
71668;DHT22;59504;54.806;9.640;2023-07-30T10:25:55;23.10;52.80
71668;DHT22;59504;54.806;9.640;2023-07-30T10:28:35;23.00;52.90
71668;DHT22;59504;54.806;9.640;2023-07-30T10:31:00;23.00;53.80
71668;DHT22;59504;54.806;9.640;2023-07-30T10:33:15;22.90;54.60
71668;DHT22;59504;54.806;9.640;2023-07-30T10:37:55;22.80;54.70
71668;DHT22;59504;54.806;9.640;2023-07-30T10:40:16;22.70;55.00
71668;DHT22;59504;54.806;9.640;2023-07-30T10:42:37;22.70;55.00
71668;DHT22;59504;54.806;9.640;2023-07-30T10:44:58;22.60;55.10
71668;DHT22;59504;54.806;9.640;2023-07-30T10:47:19;22.50;55.10
71668;DHT22;59504;54.806;9.640;2023-07-30T10:49:39;22.50;55.20
71668;DHT22;59504;54.806;9.640;2023-07-30T10:52:04;22.40;55.60
71668;DHT22;59504;54.806;9.640;2023-07-30T10:54:25;22.40;55.90
71668;DHT22;59504;54.806;9.640;2023-07-30T10:56:51;22.30;55.70
71668;DHT22;59504;54.806;9.640;2023-07-30T10:59:12;22.40;55.70
71668;DHT22;59504;54.806;9.640;2023-07-30T11:01:13;22.30;56.00
71668;DHT22;59504;54.806;9.640;2023-07-30T11:03:14;22.30;55.50
71668;DHT22;59504;54.806;9.640;2023-07-30T11:05:14;22.30;56.00
71668;DHT22;59504;54.806;9.640;2023-07-30T11:07:18;22.30;56.00
71668;DHT22;59504;54.806;9.640;2023-07-30T11:11:20;22.30;56.40
71668;DHT22;59504;54.806;9.640;2023-07-30T11:13:23;22.30;56.60
71668;DHT22;59504;54.806;9.640;2023-07-30T11:15:24;22.40;57.40
71668;DHT22;59504;54.806;9.640;2023-07-30T11:17:25;22.40;57.00
71668;DHT22;59504;54.806;9.640;2023-07-30T11:19:27;22.50;56.40
71668;DHT22;59504;54.806;9.640;2023-07-30T11:21:27;22.50;56.60
71668;DHT22;59504;54.806;9.640;2023-07-30T11:23:28;22.60;57.00
71668;DHT22;59504;54.806;9.640;2023-07-30T11:25:29;22.60;56.30
71668;DHT22;59504;54.806;9.640;2023-07-30T11:27:30;22.70;56.80
71668;DHT22;59504;54.806;9.640;2023-07-30T11:29:53;22.70;57.20
71668;DHT22;59504;54.806;9.640;2023-07-30T11:32:02;22.80;57.20
71668;DHT22;59504;54.806;9.640;2023-07-30T11:34:03;22.80;57.30
71668;DHT22;59504;54.806;9.640;2023-07-30T11:36:04;22.80;57.40
71668;DHT22;59504;54.806;9.640;2023-07-30T11:38:06;22.70;57.20
71668;DHT22;59504;54.806;9.640;2023-07-30T11:40:11;22.70;57.00
71668;DHT22;59504;54.806;9.640;2023-07-30T11:42:15;22.60;56.40
71668;DHT22;59504;54.806;9.640;2023-07-30T11:44:35;22.60;56.50
71668;DHT22;59504;54.806;9.640;2023-07-30T11:46:38;22.60;56.80
71668;DHT22;59504;54.806;9.640;2023-07-30T11:48:39;22.50;56.90
71668;DHT22;59504;54.806;9.640;2023-07-30T11:52:53;22.40;56.00
71668;DHT22;59504;54.806;9.640;2023-07-30T11:55:02;22.50;56.40
71668;DHT22;59504;54.806;9.640;2023-07-30T11:57:03;22.40;55.80
71668;DHT22;59504;54.806;9.640;2023-07-30T11:59:07;22.40;55.40
71668;DHT22;59504;54.806;9.640;2023-07-30T12:01:07;22.30;55.40
71668;DHT22;59504;54.806;9.640;2023-07-30T12:03:13;22.30;55.10
71668;DHT22;59504;54.806;9.640;2023-07-30T12:05:34;22.30;55.20
71668;DHT22;59504;54.806;9.640;2023-07-30T12:07:55;22.30;55.30
71668;DHT22;59504;54.806;9.640;2023-07-30T12:10:05;22.30;55.80
71668;DHT22;59504;54.806;9.640;2023-07-30T12:12:26;22.20;54.70
71668;DHT22;59504;54.806;9.640;2023-07-30T12:17:08;22.20;54.80
71668;DHT22;59504;54.806;9.640;2023-07-30T12:19:28;22.10;54.90
71668;DHT22;59504;54.806;9.640;2023-07-30T12:21:49;22.10;54.90
71668;DHT22;59504;54.806;9.640;2023-07-30T12:24:09;22.10;54.30
71668;DHT22;59504;54.806;9.640;2023-07-30T12:26:30;22.10;54.40
71668;DHT22;59504;54.806;9.640;2023-07-30T12:28:32;22.00;54.30
71668;DHT22;59504;54.806;9.640;2023-07-30T12:30:33;22.00;54.90
71668;DHT22;59504;54.806;9.640;2023-07-30T12:32:33;22.00;54.80
71668;DHT22;59504;54.806;9.640;2023-07-30T12:34:34;22.00;54.80
71668;DHT22;59504;54.806;9.640;2023-07-30T12:36:34;22.00;54.80
71668;DHT22;59504;54.806;9.640;2023-07-30T12:38:35;21.90;54.40
71668;DHT22;59504;54.806;9.640;2023-07-30T12:40:36;21.90;54.40
71668;DHT22;59504;54.806;9.640;2023-07-30T12:42:44;21.90;54.10
71668;DHT22;59504;54.806;9.640;2023-07-30T12:44:44;21.90;54.20
71668;DHT22;59504;54.806;9.640;2023-07-30T12:46:45;21.90;54.50
71668;DHT22;59504;54.806;9.640;2023-07-30T12:48:46;21.80;55.00
71668;DHT22;59504;54.806;9.640;2023-07-30T12:50:46;21.70;55.40
71668;DHT22;59504;54.806;9.640;2023-07-30T12:52:47;21.70;55.50
71668;DHT22;59504;54.806;9.640;2023-07-30T12:54:48;21.70;55.70
71668;DHT22;59504;54.806;9.640;2023-07-30T12:56:50;21.60;55.80
71668;DHT22;59504;54.806;9.640;2023-07-30T12:58:50;21.60;55.90
71668;DHT22;59504;54.806;9.640;2023-07-30T13:00:51;21.50;56.00
71668;DHT22;59504;54.806;9.640;2023-07-30T13:02:52;21.40;55.70
71668;DHT22;59504;54.806;9.640;2023-07-30T13:04:56;21.40;54.80
71668;DHT22;59504;54.806;9.640;2023-07-30T13:06:56;21.30;54.20
71668;DHT22;59504;54.806;9.640;2023-07-30T13:08:57;21.30;53.70
71668;DHT22;59504;54.806;9.640;2023-07-30T13:10:57;21.20;54.20
71668;DHT22;59504;54.806;9.640;2023-07-30T13:12:58;21.20;53.10
71668;DHT22;59504;54.806;9.640;2023-07-30T13:14:59;21.20;53.60
71668;DHT22;59504;54.806;9.640;2023-07-30T13:17:00;21.10;52.60
71668;DHT22;59504;54.806;9.640;2023-07-30T13:19:00;21.10;52.80
71668;DHT22;59504;54.806;9.640;2023-07-30T13:21:01;21.00;52.90
71668;DHT22;59504;54.806;9.640;2023-07-30T13:23:01;21.00;52.50
71668;DHT22;59504;54.806;9.640;2023-07-30T13:25:06;20.90;52.80
71668;DHT22;59504;54.806;9.640;2023-07-30T13:27:18;20.90;53.20
71668;DHT22;59504;54.806;9.640;2023-07-30T13:29:19;20.80;53.50
71668;DHT22;59504;54.806;9.640;2023-07-30T13:31:19;20.70;53.70
71668;DHT22;59504;54.806;9.640;2023-07-30T13:33:20;20.60;53.90
71668;DHT22;59504;54.806;9.640;2023-07-30T13:35:21;20.60;54.10
71668;DHT22;59504;54.806;9.640;2023-07-30T13:37:22;20.60;54.30
71668;DHT22;59504;54.806;9.640;2023-07-30T13:39:22;20.50;54.40
71668;DHT22;59504;54.806;9.640;2023-07-30T13:41:23;20.50;54.70
71668;DHT22;59504;54.806;9.640;2023-07-30T13:43:24;20.40;54.70
71668;DHT22;59504;54.806;9.640;2023-07-30T13:45:24;20.40;54.80
71668;DHT22;59504;54.806;9.640;2023-07-30T13:47:25;20.40;55.00
71668;DHT22;59504;54.806;9.640;2023-07-30T13:49:25;20.30;55.10